createdAt,value
2023-04-14T00:00:48.744Z,100123.59
2023-04-14T00:03:16.626Z,100122.78
2023-04-14T00:05:43.260Z,100129.22
2023-04-14T00:08:09.626Z,100128.13
2023-04-14T00:10:36.052Z,100133.81
2023-04-14T00:13:02.420Z,100144.66
2023-04-14T00:15:28.832Z,100142.09
2023-04-14T00:17:55.383Z,100147.13
2023-04-14T00:20:21.832Z,100150.34
2023-04-14T00:22:48.210Z,100147.56
2023-04-14T00:25:14.668Z,100149.69
2023-04-14T00:27:41.072Z,100150.56
2023-04-14T00:30:08.000Z,100146.69
2023-04-14T00:32:34.428Z,100148.75
2023-04-14T00:35:03.156Z,100150.19
2023-04-14T00:37:30.769Z,100150.34
2023-04-14T00:39:57.228Z,100155.16
2023-04-14T00:42:23.844Z,100167.72
2023-04-14T00:44:50.288Z,100162.78
2023-04-14T00:47:17.468Z,100168.25
2023-04-14T00:49:43.922Z,100171.50
2023-04-14T00:52:10.439Z,100179.13
2023-04-14T00:54:38.261Z,100172.59
2023-04-14T00:57:05.301Z,100169.84
2023-04-14T00:59:31.775Z,100176.19
2023-04-14T01:01:59.209Z,100167.91
2023-04-14T01:04:33.680Z,100182.38
2023-04-14T01:07:07.205Z,100168.44
2023-04-14T01:09:33.604Z,100169.03
2023-04-14T01:12:38.540Z,100167.72
2023-04-14T01:15:12.629Z,100176.56
2023-04-14T01:17:50.012Z,100183.44
2023-04-14T01:20:48.072Z,100186.59
2023-04-14T01:23:27.457Z,100177.88
2023-04-14T01:26:42.266Z,100187.13
2023-04-14T01:29:29.577Z,100183.81
2023-04-14T01:32:02.877Z,100184.50
2023-04-14T01:34:51.053Z,100188.25
2023-04-14T01:37:19.456Z,100188.25
2023-04-14T01:39:50.180Z,100191.72
2023-04-14T01:42:19.536Z,100187.72
2023-04-14T01:44:49.199Z,100185.16
2023-04-14T01:47:17.703Z,100182.31
2023-04-14T01:49:45.268Z,100184.19
2023-04-14T01:52:13.493Z,100183.41
2023-04-14T01:54:41.468Z,100190.34
2023-04-14T01:57:09.201Z,100182.53
2023-04-14T01:59:37.134Z,100192.06
2023-04-14T02:02:05.314Z,100196.13
2023-04-14T02:04:32.330Z,100189.47
2023-04-14T02:06:59.442Z,100193.72
2023-04-14T02:09:28.133Z,100189.34
2023-04-14T02:11:54.861Z,100192.31
2023-04-14T02:14:22.456Z,100192.56
2023-04-14T02:16:49.090Z,100194.63
2023-04-14T02:19:18.795Z,100188.94
2023-04-14T02:21:46.387Z,100189.84
2023-04-14T02:24:12.768Z,100184.50
2023-04-14T02:26:44.275Z,100191.34
2023-04-14T02:29:12.757Z,100194.88
2023-04-14T02:31:50.371Z,100201.69
2023-04-14T02:34:18.977Z,100194.25
2023-04-14T02:36:48.188Z,100208.50
2023-04-14T02:39:21.499Z,100205.53
2023-04-14T02:41:50.256Z,100208.75
2023-04-14T02:44:19.501Z,100209.34
2023-04-14T02:46:55.947Z,100209.22
2023-04-14T02:49:23.390Z,100206.53
2023-04-14T02:51:50.376Z,100195.25
2023-04-14T02:54:18.188Z,100201.66
2023-04-14T02:56:44.676Z,100203.69
2023-04-14T02:59:11.310Z,100203.47
2023-04-14T03:01:37.823Z,100207.31
2023-04-14T03:04:04.467Z,100209.38
2023-04-14T03:06:31.707Z,100206.81
2023-04-14T03:09:00.044Z,100219.28
2023-04-14T03:11:27.483Z,100218.63
2023-04-14T03:13:56.378Z,100218.25
2023-04-14T03:16:23.081Z,100214.28
2023-04-14T03:18:50.627Z,100219.13
2023-04-14T03:21:19.114Z,100225.59
2023-04-14T03:23:46.755Z,100227.88
2023-04-14T03:26:15.006Z,100223.50
2023-04-14T03:28:42.656Z,100229.28
2023-04-14T03:31:10.809Z,100222.34
2023-04-14T03:33:38.865Z,100225.94
2023-04-14T03:36:07.432Z,100225.16
2023-04-14T03:38:34.620Z,100222.78
2023-04-14T03:41:04.128Z,100224.97
2023-04-14T03:43:31.532Z,100222.09
2023-04-14T03:45:58.169Z,100224.28
2023-04-14T03:48:26.342Z,100224.69
2023-04-14T03:50:53.779Z,100234.66
2023-04-14T03:53:21.205Z,100233.00
2023-04-14T03:55:49.728Z,100236.28
2023-04-14T03:58:17.222Z,100235.66
2023-04-14T04:00:44.788Z,100244.91
2023-04-14T04:03:12.301Z,100239.53
2023-04-14T04:05:40.888Z,100246.59
2023-04-14T04:08:08.273Z,100245.03
2023-04-14T04:10:35.446Z,100250.88
2023-04-14T04:13:03.039Z,100249.34
2023-04-14T04:15:31.283Z,100243.84
2023-04-14T04:17:58.390Z,100249.34
2023-04-14T04:20:25.926Z,100258.09
2023-04-14T04:22:52.726Z,100260.09
2023-04-14T04:25:19.621Z,100264.81
2023-04-14T04:27:46.447Z,100255.88
2023-04-14T04:30:13.302Z,100256.03
2023-04-14T04:32:39.737Z,100259.56
2023-04-14T04:35:07.398Z,100252.94
2023-04-14T04:37:34.708Z,100253.69
2023-04-14T04:40:01.122Z,100259.81
2023-04-14T04:42:27.553Z,100253.50
2023-04-14T04:44:53.959Z,100258.41
2023-04-14T04:47:20.329Z,100261.63
2023-04-14T04:49:46.734Z,100260.69
2023-04-14T04:52:13.276Z,100253.38
2023-04-14T04:54:39.912Z,100256.81
2023-04-14T04:57:06.316Z,100256.47
2023-04-14T04:59:33.137Z,100253.69
2023-04-14T05:01:59.614Z,100253.50
2023-04-14T05:04:26.176Z,100261.16
2023-04-14T05:06:52.606Z,100262.25
2023-04-14T05:09:19.056Z,100260.63
2023-04-14T05:11:45.444Z,100262.78
2023-04-14T05:14:11.835Z,100264.56
2023-04-14T05:16:38.220Z,100258.13
2023-04-14T05:19:04.618Z,100270.81
2023-04-14T05:21:31.056Z,100266.00
2023-04-14T05:23:57.566Z,100266.09
2023-04-14T05:26:38.962Z,100259.19
2023-04-14T05:29:10.551Z,100267.16
2023-04-14T05:31:37.055Z,100263.59
2023-04-14T05:34:03.663Z,100261.28
2023-04-14T05:36:30.978Z,100271.69
2023-04-14T05:38:57.428Z,100271.34
2023-04-14T05:41:23.836Z,100262.88
2023-04-14T05:43:50.697Z,100263.75
2023-04-14T05:46:17.605Z,100260.94
2023-04-14T05:48:44.155Z,100272.19
2023-04-14T05:51:10.604Z,100267.31
2023-04-14T05:53:36.990Z,100264.13
2023-04-14T05:56:03.550Z,100264.75
2023-04-14T05:58:29.930Z,100266.31
2023-04-14T06:00:56.314Z,100260.00
2023-04-14T06:03:22.888Z,100263.00
2023-04-14T06:05:50.617Z,100269.91
2023-04-14T06:08:17.134Z,100265.94
2023-04-14T06:10:43.654Z,100267.34
2023-04-14T06:13:11.032Z,100270.91
2023-04-14T06:15:37.597Z,100264.38
2023-04-14T06:18:04.156Z,100253.75
2023-04-14T06:20:32.163Z,100257.19
2023-04-14T06:23:00.726Z,100250.59
2023-04-14T06:25:27.221Z,100247.69
2023-04-14T06:27:53.634Z,100244.41
2023-04-14T06:30:20.078Z,100239.63
2023-04-14T06:32:48.461Z,100245.13
2023-04-14T06:35:26.032Z,100242.19
2023-04-14T06:37:58.567Z,100245.00
2023-04-14T06:40:25.070Z,100251.06
2023-04-14T06:42:51.450Z,100243.94
2023-04-14T06:45:17.932Z,100244.44
2023-04-14T06:47:44.382Z,100244.44
2023-04-14T06:50:12.091Z,100246.44
2023-04-14T06:52:38.509Z,100243.41
2023-04-14T06:55:05.311Z,100235.53
2023-04-14T06:57:31.696Z,100241.59
2023-04-14T06:59:58.148Z,100245.66
2023-04-14T07:02:24.663Z,100242.72
2023-04-14T07:04:52.018Z,100242.41
2023-04-14T07:07:18.516Z,100236.78
2023-04-14T07:09:45.045Z,100233.88
2023-04-14T07:12:15.423Z,100233.94
2023-04-14T07:14:42.640Z,100230.94
2023-04-14T07:17:09.361Z,100231.81
2023-04-14T07:19:35.780Z,100233.19
2023-04-14T07:22:02.424Z,100234.03
2023-04-14T07:24:28.886Z,100233.88
2023-04-14T07:26:55.435Z,100228.50
2023-04-14T07:29:21.836Z,100224.13
2023-04-14T07:31:48.300Z,100220.13
2023-04-14T07:34:14.700Z,100232.69
2023-04-14T07:36:41.131Z,100224.25
2023-04-14T07:39:07.570Z,100222.16
2023-04-14T07:41:33.976Z,100223.25
2023-04-14T07:44:00.726Z,100228.00
2023-04-14T07:46:27.776Z,100226.34
2023-04-14T07:48:54.308Z,100226.84
2023-04-14T07:51:20.875Z,100222.69
2023-04-14T07:53:47.290Z,100219.63
2023-04-14T07:56:15.585Z,100222.81
2023-04-14T07:58:42.003Z,100221.97
2023-04-14T08:01:08.406Z,100225.97
2023-04-14T08:03:37.255Z,100220.13
2023-04-14T08:06:07.387Z,100221.09
2023-04-14T08:08:34.571Z,100216.31
2023-04-14T08:11:01.069Z,100220.13
2023-04-14T08:13:27.522Z,100222.22
2023-04-14T08:15:53.909Z,100216.38
2023-04-14T08:18:20.421Z,100218.34
2023-04-14T08:20:46.858Z,100219.63
2023-04-14T08:23:13.311Z,100222.59
2023-04-14T08:25:39.751Z,100210.38
2023-04-14T08:28:06.174Z,100205.88
2023-04-14T08:30:32.575Z,100201.84
2023-04-14T08:32:59.322Z,100210.19
2023-04-14T08:35:39.190Z,100201.59
2023-04-14T08:38:06.760Z,100202.50
2023-04-14T08:40:41.100Z,100199.78
2023-04-14T08:43:08.010Z,100204.19
2023-04-14T08:45:34.968Z,100196.84
2023-04-14T08:48:05.690Z,100202.09
2023-04-14T08:50:36.970Z,100201.06
2023-04-14T08:53:06.504Z,100201.88
2023-04-14T08:55:33.465Z,100197.31
2023-04-14T08:58:02.185Z,100183.44
2023-04-14T09:00:28.672Z,100193.69
2023-04-14T09:02:55.992Z,100187.53
2023-04-14T09:05:22.466Z,100192.66
2023-04-14T09:07:49.413Z,100187.72
2023-04-14T09:10:16.628Z,100180.53
2023-04-14T09:12:43.093Z,100184.66
2023-04-14T09:15:10.288Z,100178.34
2023-04-14T09:17:37.227Z,100179.81
2023-04-14T09:20:38.105Z,100174.00
2023-04-14T09:22:51.135Z,100181.53
2023-04-14T09:25:17.630Z,100173.22
2023-04-14T09:27:44.295Z,100182.56
2023-04-14T09:30:11.263Z,100185.25
2023-04-14T09:32:38.521Z,100176.91
2023-04-14T09:35:06.169Z,100173.69
2023-04-14T09:37:43.819Z,100173.84
2023-04-14T09:40:11.845Z,100175.34
2023-04-14T09:42:39.944Z,100172.03
2023-04-14T09:45:07.036Z,100169.91
2023-04-14T09:47:33.471Z,100158.66
2023-04-14T09:50:03.133Z,100160.72
2023-04-14T09:52:37.770Z,100159.41
2023-04-14T09:55:07.487Z,100165.75
2023-04-14T09:57:35.541Z,100159.47
2023-04-14T10:00:01.971Z,100140.59
2023-04-14T10:02:28.671Z,100139.00
2023-04-14T10:05:05.440Z,100139.88
2023-04-14T10:07:33.480Z,100139.22
2023-04-14T10:10:06.826Z,100136.78
2023-04-14T10:12:33.400Z,100122.03
2023-04-14T10:15:00.051Z,100119.84
2023-04-14T10:17:29.174Z,100117.13
2023-04-14T10:19:56.441Z,100118.41
2023-04-14T10:22:23.735Z,100114.06
2023-04-14T10:24:51.248Z,100112.78
2023-04-14T10:27:17.675Z,100115.47
2023-04-14T10:29:44.078Z,100104.09
2023-04-14T10:32:13.577Z,100113.25
2023-04-14T10:34:54.705Z,100105.94
2023-04-14T10:37:21.184Z,100111.13
2023-04-14T10:39:56.233Z,100101.56
2023-04-14T10:42:23.237Z,100100.56
2023-04-14T10:45:06.756Z,100098.19
2023-04-14T10:47:35.272Z,100096.91
2023-04-14T10:50:18.497Z,100087.34
2023-04-14T10:52:58.831Z,100083.47
2023-04-14T10:55:27.856Z,100095.97
2023-04-14T10:58:05.162Z,100091.63
2023-04-14T11:00:34.844Z,100085.41
2023-04-14T11:03:11.963Z,100075.50
2023-04-14T11:05:48.495Z,100085.50
2023-04-14T11:08:26.304Z,100085.13
2023-04-14T11:11:04.087Z,100075.41
2023-04-14T11:13:31.998Z,100069.03
2023-04-14T11:16:01.893Z,100058.34
2023-04-14T11:18:28.224Z,100067.59
2023-04-14T11:21:15.069Z,100060.78
2023-04-14T11:23:42.304Z,100054.09
2023-04-14T11:26:09.859Z,100067.31
2023-04-14T11:28:38.319Z,100069.75
2023-04-14T11:31:06.230Z,100058.16
2023-04-14T11:33:34.318Z,100055.31
2023-04-14T11:36:02.535Z,100058.78
2023-04-14T11:38:29.885Z,100046.28
2023-04-14T11:40:56.783Z,100035.91
2023-04-14T11:43:23.776Z,100024.97
2023-04-14T11:45:51.660Z,100019.84
2023-04-14T11:48:19.610Z,100023.63
2023-04-14T11:50:48.017Z,100008.16
2023-04-14T11:53:17.258Z,100023.53
2023-04-14T11:55:48.912Z,100014.22
2023-04-14T11:58:19.756Z,100004.63
2023-04-14T12:00:48.213Z,100007.38
2023-04-14T12:03:14.927Z,99995.31
2023-04-14T12:05:41.895Z,99994.66
2023-04-14T12:08:12.227Z,99998.53
2023-04-14T12:10:42.163Z,100012.25
2023-04-14T12:13:09.925Z,100018.13
2023-04-14T12:15:37.315Z,100013.44
2023-04-14T12:18:15.807Z,100009.91
2023-04-14T12:20:46.854Z,99995.75
2023-04-14T12:23:13.636Z,100003.44
2023-04-14T12:25:40.407Z,100003.16
2023-04-14T12:28:06.931Z,99994.75
2023-04-14T12:30:34.558Z,99992.28
2023-04-14T12:33:08.636Z,99982.75
2023-04-14T12:35:35.148Z,99974.47
2023-04-14T12:38:01.546Z,99967.34
2023-04-14T12:40:38.866Z,99969.34
2023-04-14T12:43:05.322Z,99971.03
2023-04-14T12:45:41.057Z,99979.56
2023-04-14T12:48:08.314Z,99977.31
2023-04-14T12:50:34.891Z,99992.44
2023-04-14T12:53:01.531Z,99979.88
2023-04-14T12:55:29.772Z,99982.69
2023-04-14T12:57:58.324Z,99966.59
2023-04-14T13:00:27.442Z,99973.75
2023-04-14T13:02:55.572Z,99969.50
2023-04-14T13:05:22.704Z,99954.06
2023-04-14T13:07:49.207Z,99957.22
2023-04-14T13:10:15.860Z,99957.84
2023-04-14T13:12:42.584Z,99956.78
2023-04-14T13:15:09.496Z,99958.56
2023-04-14T13:17:55.939Z,99962.75
2023-04-14T13:20:22.453Z,99947.78
2023-04-14T13:22:48.851Z,99938.56
2023-04-14T13:25:15.357Z,99934.66
2023-04-14T13:27:41.730Z,99924.56
2023-04-14T13:30:08.938Z,99928.41
2023-04-14T13:32:35.374Z,99936.44
2023-04-14T13:35:01.774Z,99921.28
2023-04-14T13:37:28.217Z,99918.66
2023-04-14T13:39:54.892Z,99928.97
2023-04-14T13:42:21.258Z,99930.00
2023-04-14T13:44:48.027Z,99928.50
2023-04-14T13:47:14.407Z,99929.38
2023-04-14T13:49:40.804Z,99923.84
2023-04-14T13:52:08.245Z,99928.56
2023-04-14T13:54:35.336Z,99925.63
2023-04-14T13:57:01.803Z,99928.25
2023-04-14T13:59:28.294Z,99930.00
2023-04-14T14:01:54.807Z,99934.91
2023-04-14T14:04:21.586Z,99932.00
2023-04-14T14:06:48.067Z,99933.53
2023-04-14T14:09:14.487Z,99938.72
2023-04-14T14:11:44.040Z,99930.22
2023-04-14T14:14:12.730Z,99938.34
2023-04-14T14:16:39.252Z,99939.13
2023-04-14T14:19:07.979Z,99947.41
2023-04-14T14:21:34.425Z,99938.50
2023-04-14T14:24:01.374Z,99937.66
2023-04-14T14:26:27.980Z,99931.59
2023-04-14T14:28:54.365Z,99932.28
2023-04-14T14:31:20.776Z,99928.81
2023-04-14T14:33:47.286Z,99924.66
2023-04-14T14:36:14.958Z,99920.94
2023-04-14T14:38:41.371Z,99932.28
2023-04-14T14:41:07.759Z,99925.84
2023-04-14T14:43:34.164Z,99923.66
2023-04-14T14:46:01.588Z,99920.56
2023-04-14T14:48:28.140Z,99913.97
2023-04-14T14:50:54.517Z,99913.28
2023-04-14T14:53:20.868Z,99914.50
2023-04-14T14:55:47.409Z,99916.94
2023-04-14T14:58:13.858Z,99917.56
2023-04-14T15:00:40.285Z,99907.31
2023-04-14T15:03:06.726Z,99905.09
2023-04-14T15:05:33.520Z,99913.38
2023-04-14T15:07:59.927Z,99904.53
2023-04-14T15:10:26.630Z,99915.97
2023-04-14T15:12:53.622Z,99922.25
2023-04-14T15:15:20.076Z,99920.56
2023-04-14T15:17:46.566Z,99918.69
2023-04-14T15:20:13.175Z,99917.72
2023-04-14T15:22:39.593Z,99912.88
2023-04-14T15:25:07.029Z,99909.75
2023-04-14T15:27:33.443Z,99907.25
2023-04-14T15:30:00.029Z,99906.13
2023-04-14T15:32:27.287Z,99910.09
2023-04-14T15:34:54.490Z,99905.66
2023-04-14T15:37:20.940Z,99909.75
2023-04-14T15:39:47.332Z,99906.69
2023-04-14T15:42:13.862Z,99920.81
2023-04-14T15:44:40.320Z,99920.50
2023-04-14T15:47:06.764Z,99913.16
2023-04-14T15:49:33.141Z,99907.34
2023-04-14T15:51:59.512Z,99910.03
2023-04-14T15:54:26.861Z,99914.75
2023-04-14T15:56:53.255Z,99908.94
2023-04-14T15:59:20.589Z,99902.47
2023-04-14T16:01:47.364Z,99901.72
2023-04-14T16:04:13.951Z,99886.84
2023-04-14T16:06:40.650Z,99880.56
2023-04-14T16:09:07.094Z,99871.53
2023-04-14T16:11:36.306Z,99873.13
2023-04-14T16:14:03.105Z,99865.44
2023-04-14T16:16:29.779Z,99876.19
2023-04-14T16:18:56.167Z,99870.44
2023-04-14T16:21:22.548Z,99870.88
2023-04-14T16:23:48.936Z,99866.31
2023-04-14T16:26:15.991Z,99867.31
2023-04-14T16:28:42.770Z,99864.59
2023-04-14T16:31:09.217Z,99874.91
2023-04-14T16:33:35.698Z,99884.84
2023-04-14T16:36:08.764Z,99876.72
2023-04-14T16:38:35.343Z,99871.50
2023-04-14T16:41:02.498Z,99868.72
2023-04-14T16:43:29.048Z,99867.47
2023-04-14T16:46:05.019Z,99868.78
2023-04-14T16:48:32.384Z,99879.88
2023-04-14T16:51:09.124Z,99880.88
2023-04-14T16:53:36.446Z,99890.47
2023-04-14T16:56:12.952Z,99895.97
2023-04-14T16:58:39.827Z,99918.59
2023-04-14T17:01:07.128Z,99930.34
2023-04-14T17:03:34.198Z,99920.38
2023-04-14T17:06:00.814Z,99917.72
2023-04-14T17:08:27.210Z,99922.53
2023-04-14T17:10:53.574Z,99940.41
2023-04-14T17:13:20.313Z,99945.91
2023-04-14T17:15:55.688Z,99947.66
2023-04-14T17:18:28.619Z,99943.78
2023-04-14T17:20:54.992Z,99948.69
2023-04-14T17:23:21.798Z,99957.41
2023-04-14T17:25:48.512Z,99968.91
2023-04-14T17:28:15.494Z,99972.22
2023-04-14T17:30:42.081Z,99970.63
2023-04-14T17:33:08.678Z,99978.97
2023-04-14T17:35:35.460Z,99988.09
2023-04-14T17:38:02.247Z,99981.75
2023-04-14T17:40:28.723Z,99972.88
2023-04-14T17:42:55.561Z,99975.41
2023-04-14T17:45:23.202Z,99978.38
2023-04-14T17:47:53.598Z,99973.63
2023-04-14T17:50:21.018Z,99971.91
2023-04-14T17:52:47.504Z,99978.72
2023-04-14T17:55:14.630Z,99973.16
2023-04-14T17:57:41.099Z,99970.81
2023-04-14T18:00:09.697Z,99976.34
2023-04-14T18:02:38.417Z,99966.72
2023-04-14T18:05:09.280Z,99963.22
2023-04-14T18:07:36.842Z,99966.44
2023-04-14T18:10:03.575Z,99973.66
2023-04-14T18:12:30.879Z,99969.13
2023-04-14T18:14:57.316Z,99970.50
2023-04-14T18:17:24.550Z,99964.28
2023-04-14T18:19:51.131Z,99964.34
2023-04-14T18:22:17.514Z,99970.00
2023-04-14T18:29:42.644Z,99974.63
2023-04-14T18:32:09.235Z,99974.34
2023-04-14T18:34:35.726Z,99971.69
2023-04-14T18:37:03.835Z,99974.50
2023-04-14T18:39:37.369Z,99978.28
2023-04-14T18:42:04.465Z,99984.75
2023-04-14T18:44:30.935Z,99981.97
2023-04-14T18:46:57.338Z,99988.97
2023-04-14T18:49:23.943Z,99994.44
2023-04-14T18:51:50.691Z,99996.50
2023-04-14T18:54:17.645Z,99994.78
2023-04-14T18:56:44.039Z,99991.16
2023-04-14T18:59:10.519Z,99995.59
2023-04-14T19:01:36.919Z,99992.84
2023-04-14T19:04:03.481Z,99998.22
2023-04-14T19:06:29.992Z,99999.06
2023-04-14T19:08:56.549Z,99996.66
2023-04-14T19:11:23.452Z,99997.97
2023-04-14T19:13:49.853Z,100004.88
2023-04-14T19:16:16.325Z,100000.03
2023-04-14T19:18:42.740Z,100007.13
2023-04-14T19:21:09.210Z,100010.72
2023-04-14T19:23:36.677Z,100012.34
2023-04-14T19:26:03.528Z,100016.00
2023-04-14T19:28:30.083Z,100016.78
2023-04-14T19:30:56.499Z,100021.59
2023-04-14T19:33:23.827Z,100020.16
2023-04-14T19:35:51.604Z,100022.84
2023-04-14T19:38:19.025Z,100020.81
2023-04-14T19:40:48.720Z,100021.69
2023-04-14T19:43:18.751Z,100025.03
2023-04-14T19:45:54.842Z,100021.44
2023-04-14T19:48:23.875Z,100019.00
2023-04-14T19:50:54.090Z,100024.81
2023-04-14T19:53:21.590Z,100022.41
2023-04-14T19:55:50.127Z,100024.09
2023-04-14T19:58:20.076Z,100024.91
2023-04-14T20:00:48.863Z,100033.34
2023-04-14T20:03:15.410Z,100031.91
2023-04-14T20:05:42.706Z,100023.50
2023-04-14T20:08:09.109Z,100031.16
2023-04-14T20:10:35.736Z,100031.59
2023-04-14T20:13:02.388Z,100032.19
2023-04-14T20:15:29.113Z,100029.88
2023-04-14T20:17:55.647Z,100028.00
2023-04-14T20:20:22.205Z,100035.28
2023-04-14T20:22:49.426Z,100040.44
2023-04-14T20:25:17.787Z,100030.06
2023-04-14T20:27:45.010Z,100045.63
2023-04-14T20:30:12.414Z,100041.25
2023-04-14T20:32:38.897Z,100044.91
2023-04-14T20:35:05.630Z,100046.72
2023-04-14T20:37:32.058Z,100048.03
2023-04-14T20:39:58.435Z,100047.63
2023-04-14T20:42:25.169Z,100050.41
2023-04-14T20:44:51.590Z,100050.41
2023-04-14T20:47:17.966Z,100050.50
2023-04-14T20:49:44.864Z,100051.91
2023-04-14T20:52:11.337Z,100062.13
2023-04-14T20:54:37.771Z,100057.97
2023-04-14T20:57:05.403Z,100055.38
2023-04-14T20:59:32.605Z,100056.06
2023-04-14T21:01:59.145Z,100055.97
2023-04-14T21:04:26.020Z,100055.59
2023-04-14T21:06:52.772Z,100059.16
2023-04-14T21:09:21.224Z,100057.66
2023-04-14T21:11:47.719Z,100064.41
2023-04-14T21:15:47.240Z,100057.66
2023-04-14T21:17:20.433Z,100056.19
2023-04-14T21:19:47.001Z,100061.22
2023-04-14T21:22:13.387Z,100051.91
2023-04-14T21:24:39.843Z,100060.94
2023-04-14T21:27:06.520Z,100063.94
2023-04-14T21:29:32.925Z,100068.00
2023-04-14T21:31:59.614Z,100060.75
2023-04-14T21:34:27.366Z,100071.69
2023-04-14T21:36:53.912Z,100073.38
2023-04-14T21:39:21.718Z,100066.38
2023-04-14T21:41:48.504Z,100059.47
2023-04-14T21:44:15.604Z,100066.19
2023-04-14T21:46:42.094Z,100064.31
2023-04-14T21:49:08.504Z,100067.09
2023-04-14T21:51:34.896Z,100061.69
2023-04-14T21:54:01.291Z,100060.38
2023-04-14T21:56:27.855Z,100064.31
2023-04-14T21:58:54.352Z,100062.22
2023-04-14T22:01:20.820Z,100067.53
2023-04-14T22:03:47.513Z,100071.03
2023-04-14T22:06:14.256Z,100064.38
2023-04-14T22:08:40.921Z,100061.78
2023-04-14T22:11:07.475Z,100066.09
2023-04-14T22:13:33.909Z,100063.06
2023-04-14T22:16:00.471Z,100070.41
2023-04-14T22:18:30.848Z,100070.13
2023-04-14T22:20:57.260Z,100064.97
2023-04-14T22:23:23.641Z,100071.44
2023-04-14T22:25:50.708Z,100065.91
2023-04-14T22:28:17.083Z,100073.56
2023-04-14T22:30:44.038Z,100071.50
2023-04-14T22:33:10.467Z,100070.59
2023-04-14T22:35:36.917Z,100064.41
2023-04-14T22:38:03.396Z,100070.25
2023-04-14T22:40:29.776Z,100074.28
2023-04-14T22:42:56.579Z,100081.72
2023-04-14T22:45:23.048Z,100078.06
2023-04-14T22:47:49.519Z,100079.88
2023-04-14T22:50:15.955Z,100084.47
2023-04-14T22:52:42.465Z,100072.69
2023-04-14T22:55:08.904Z,100085.94
2023-04-14T22:57:35.356Z,100086.66
2023-04-14T23:00:08.848Z,100084.78
2023-04-14T23:02:36.106Z,100090.09
2023-04-14T23:05:04.072Z,100088.13
2023-04-14T23:07:30.447Z,100094.13
2023-04-14T23:09:57.458Z,100094.91
2023-04-14T23:12:23.860Z,100095.47
2023-04-14T23:14:50.422Z,100094.91
2023-04-14T23:17:16.903Z,100091.19
2023-04-14T23:19:43.321Z,100097.16
2023-04-14T23:22:10.053Z,100097.03
2023-04-14T23:24:36.406Z,100097.16
2023-04-14T23:27:03.009Z,100095.03
2023-04-14T23:29:29.428Z,100094.91
2023-04-14T23:31:56.386Z,100105.09
2023-04-14T23:34:22.812Z,100100.47
2023-04-14T23:36:49.416Z,100105.75
2023-04-14T23:39:15.792Z,100107.59
2023-04-14T23:41:42.513Z,100102.66
2023-04-14T23:44:09.076Z,100106.88
2023-04-14T23:46:35.519Z,100107.63
2023-04-14T23:49:10.417Z,100108.56
2023-04-14T23:51:48.648Z,100104.53
2023-04-14T23:54:15.360Z,100102.66
2023-04-14T23:56:41.761Z,100100.66
2023-04-14T23:59:08.542Z,100102.44
